Time;durP1;ratioP1;P1;durP2;ratioP2;P2;SDS_P1;SDS_P2;PMS_P1;PMS_P2;Temp;Humidity;BMP_temperature;BMP_pressure;BME280_temperature;BME280_humidity;BME280_pressure;Samples;Min_cycle;Max_cycle;Signal;HPM_P1;HPM_P2
2021/04/25 00:00:21;;;;;;;1999.90;999.90;;;;;;;9.82;57.78;98624.97;5079905;28;20048;-65
2021/04/25 00:02:47;;;;;;;1999.90;999.90;;;;;;;9.84;57.02;98619.94;5084584;28;20106;-65
2021/04/25 00:05:15;;;;;;;1999.90;999.90;;;;;;;9.79;57.01;98620.88;5080604;28;20048;-65
2021/04/25 00:07:43;;;;;;;1999.90;999.90;;;;;;;9.70;57.67;98623.59;5063868;28;20549;-65
2021/04/25 00:10:11;;;;;;;1999.90;999.90;;;;;;;9.71;57.88;98613.38;5083413;28;20453;-65
2021/04/25 00:12:41;;;;;;;1999.90;999.90;;;;;;;9.63;59.89;98606.66;5080559;28;20048;-65
2021/04/25 00:15:14;;;;;;;1999.90;999.90;;;;;;;9.61;59.65;98608.09;5083044;28;20052;-65
2021/04/25 00:17:40;;;;;;;1999.90;999.90;;;;;;;9.46;60.46;98599.03;5084681;28;20044;-65
2021/04/25 00:20:07;;;;;;;1999.90;999.90;;;;;;;9.44;60.63;98601.31;5085453;28;20080;-65
2021/04/25 00:22:34;;;;;;;1999.90;999.90;;;;;;;9.45;61.10;98604.88;5086838;28;20497;-65
2021/04/25 00:25:00;;;;;;;1999.90;999.90;;;;;;;9.47;59.60;98600.69;5083670;28;20052;-65
2021/04/25 00:27:27;;;;;;;1999.90;999.90;;;;;;;9.45;60.14;98604.88;5086311;28;20105;-65
2021/04/25 00:29:53;;;;;;;1999.90;999.90;;;;;;;9.40;61.64;98596.72;5086181;28;20048;-65
2021/04/25 00:32:20;;;;;;;1999.90;999.90;;;;;;;9.47;60.28;98592.41;5085760;28;20052;-64
2021/04/25 00:34:46;;;;;;;1999.90;999.90;;;;;;;9.41;60.44;98588.13;5083980;28;20055;-65
2021/04/25 00:37:12;;;;;;;1999.90;999.90;;;;;;;9.49;59.23;98595.66;5085581;28;20040;-65
2021/04/25 00:39:38;;;;;;;1999.90;999.90;;;;;;;9.41;60.45;98593.66;5083522;28;20051;-66
2021/04/25 00:42:05;;;;;;;1999.90;999.90;;;;;;;9.41;61.39;98593.66;5086020;28;20048;-66
2021/04/25 00:44:32;;;;;;;1999.90;999.90;;;;;;;9.35;61.04;98583.88;5083199;28;20052;-66
2021/04/25 00:46:58;;;;;;;1999.90;999.90;;;;;;;9.32;61.34;98584.50;5071995;28;20105;-65
2021/04/25 00:49:24;;;;;;;1999.90;999.90;;;;;;;9.23;62.02;98583.56;5081880;28;20407;-66
2021/04/25 00:51:51;;;;;;;1999.90;999.90;;;;;;;9.22;62.37;98581.97;5083799;28;20048;-65
2021/04/25 00:54:17;;;;;;;1999.90;999.90;;;;;;;9.11;60.95;98590.47;5081961;28;20044;-65
2021/04/25 00:56:43;;;;;;;1999.90;999.90;;;;;;;9.13;61.09;98584.66;5082300;28;20622;-66
2021/04/25 00:59:09;;;;;;;1999.90;999.90;;;;;;;8.93;60.87;98583.13;5084597;28;20101;-65
2021/04/25 01:01:35;;;;;;;1999.90;999.90;;;;;;;8.99;61.43;98587.41;5079560;28;20106;-65
2021/04/25 01:04:01;;;;;;;1999.90;999.90;;;;;;;8.84;61.69;98580.28;5092309;28;20048;-65
2021/04/25 01:06:27;;;;;;;1999.90;999.90;;;;;;;8.90;61.75;98578.25;5086936;28;20125;-65
2021/04/25 01:08:53;;;;;;;1999.90;999.90;;;;;;;8.96;62.16;98582.53;5080576;28;20041;-65
2021/04/25 01:11:20;;;;;;;1999.90;999.90;;;;;;;8.97;63.19;98578.66;5086523;28;20070;-65
2021/04/25 01:13:50;;;;;;;1999.90;999.90;;;;;;;9.01;63.03;98585.19;5081523;28;20056;-65
2021/04/25 01:16:18;;;;;;;1999.90;999.90;;;;;;;8.88;62.31;98580.50;5087853;28;20051;-65
2021/04/25 01:18:44;;;;;;;1999.90;999.90;;;;;;;9.00;62.72;98589.06;5087243;28;24351;-65
2021/04/25 01:21:10;;;;;;;1999.90;999.90;;;;;;;9.04;61.81;98584.56;5086110;28;20564;-65
2021/04/25 01:23:36;;;;;;;1999.90;999.90;;;;;;;8.95;61.37;98580.91;5088354;28;20041;-65
2021/04/25 01:26:03;;;;;;;1999.90;999.90;;;;;;;8.75;62.97;98573.88;5083545;28;20638;-65
2021/04/25 01:28:30;;;;;;;1999.90;999.90;;;;;;;8.72;62.83;98583.56;5085712;28;20131;-65
2021/04/25 01:30:56;;;;;;;1999.90;999.90;;;;;;;8.58;63.08;98582.78;5089847;28;20056;-64
2021/04/25 01:33:24;;;;;;;1999.90;999.90;;;;;;;8.72;61.99;98574.50;5084634;28;20163;-65
2021/04/25 01:35:52;;;;;;;1999.90;999.90;;;;;;;8.68;62.56;98570.72;5085905;28;20071;-65
2021/04/25 01:38:18;;;;;;;1999.90;999.90;;;;;;;8.79;62.09;98577.66;5087329;28;20101;-65
2021/04/25 01:40:44;;;;;;;1999.90;999.90;;;;;;;8.67;62.50;98583.69;5082951;28;20044;-65
2021/04/25 01:43:11;;;;;;;1999.90;999.90;;;;;;;8.86;62.17;98582.72;5077424;28;20407;-65
2021/04/25 01:45:38;;;;;;;1999.90;999.90;;;;;;;8.98;62.15;98583.03;5073367;28;20098;-66
2021/04/25 01:48:06;;;;;;;1999.90;999.90;;;;;;;8.99;63.47;98571.69;5080237;28;20055;-65
2021/04/25 01:50:33;;;;;;;1999.90;999.90;;;;;;;8.35;64.68;98568.88;5084959;28;20044;-66
2021/04/25 01:53:00;;;;;;;1999.90;999.90;;;;;;;8.54;64.85;98570.72;5087837;28;20040;-66
2021/04/25 01:55:28;;;;;;;1999.90;999.90;;;;;;;8.76;64.01;98576.31;5086660;28;20048;-65
2021/04/25 01:57:54;;;;;;;1999.90;999.90;;;;;;;8.67;64.29;98574.63;5088934;28;20109;-65
2021/04/25 02:00:28;;;;;;;1999.90;999.90;;;;;;;8.74;63.92;98575.81;5084796;28;20106;-65
2021/04/25 02:02:54;;;;;;;1999.90;999.90;;;;;;;8.68;63.78;98571.53;5084798;28;20036;-65
2021/04/25 02:05:22;;;;;;;1999.90;999.90;;;;;;;8.59;64.71;98567.84;5085383;28;20298;-66
2021/04/25 02:07:49;;;;;;;1999.90;999.90;;;;;;;8.50;64.01;98566.94;5085647;28;20053;-65
2021/04/25 02:10:15;;;;;;;1999.90;999.90;;;;;;;8.52;64.20;98562.75;5088635;28;20048;-65
2021/04/25 02:12:41;;;;;;;1999.90;999.90;;;;;;;8.09;66.24;98563.03;5083394;28;20045;-65
2021/04/25 02:15:09;;;;;;;1999.90;999.90;;;;;;;8.24;65.92;98567.44;5090175;28;20078;-65
2021/04/25 02:17:35;;;;;;;1999.90;999.90;;;;;;;8.23;66.16;98565.78;5080870;28;20048;-66
2021/04/25 02:20:04;;;;;;;1999.90;999.90;;;;;;;8.22;65.42;98558.66;5081451;28;20075;-65
2021/04/25 02:22:31;;;;;;;1999.90;999.90;;;;;;;8.10;66.25;98561.91;5069800;28;20115;-65
2021/04/25 02:24:57;;;;;;;1999.90;999.90;;;;;;;7.77;67.15;98561.97;5068163;28;20110;-65
2021/04/25 02:27:23;;;;;;;1999.90;999.90;;;;;;;7.67;67.20;98560.19;5067160;28;20101;-65
2021/04/25 02:29:49;;;;;;;1999.90;999.90;;;;;;;7.63;67.67;98553.63;5063118;28;20098;-65
2021/04/25 02:32:15;;;;;;;1999.90;999.90;;;;;;;7.66;67.16;98552.22;5047489;28;20550;-65
2021/04/25 02:34:41;;;;;;;1999.90;999.90;;;;;;;7.76;67.14;98555.63;5068657;28;20060;-65
2021/04/25 02:37:07;;;;;;;1999.90;999.90;;;;;;;7.81;66.62;98553.91;5064913;28;20044;-65
2021/04/25 02:39:33;;;;;;;1999.90;999.90;;;;;;;7.80;66.50;98546.75;5069071;28;20053;-66
2021/04/25 02:41:59;;;;;;;1999.90;999.90;;;;;;;7.74;66.39;98544.09;5064544;28;20488;-66
2021/04/25 02:44:26;;;;;;;1999.90;999.90;;;;;;;7.67;66.89;98554.69;5064946;28;20052;-65
2021/04/25 02:46:52;;;;;;;1999.90;999.90;;;;;;;7.68;66.81;98545.31;5068328;28;20047;-65
2021/04/25 02:49:18;;;;;;;1999.90;999.90;;;;;;;7.64;67.04;98549.78;5065544;28;20499;-65
2021/04/25 02:51:44;;;;;;;1999.90;999.90;;;;;;;7.72;67.27;98543.56;5066612;28;20052;-65
2021/04/25 02:54:10;;;;;;;1999.90;999.90;;;;;;;7.63;68.09;98545.38;5063064;28;20049;-65
2021/04/25 02:56:37;;;;;;;1999.90;999.90;;;;;;;7.67;67.88;98542.88;5062994;28;20872;-65
2021/04/25 02:59:03;;;;;;;1999.90;999.90;;;;;;;7.45;68.32;98535.25;5067664;28;20135;-65
2021/04/25 03:01:29;;;;;;;1999.90;999.90;;;;;;;7.33;69.00;98532.97;5066496;28;20098;-65
2021/04/25 03:03:56;;;;;;;1999.90;999.90;;;;;;;7.36;69.90;98538.66;5065136;28;20052;-65
2021/04/25 03:06:22;;;;;;;1999.90;999.90;;;;;;;7.52;69.47;98535.69;5050585;28;20130;-65
2021/04/25 03:08:48;;;;;;;1999.90;999.90;;;;;;;6.87;70.98;98548.22;5062667;28;20044;-65
2021/04/25 03:11:14;;;;;;;1999.90;999.90;;;;;;;6.38;73.04;98535.66;5067608;28;20106;-65
2021/04/25 03:13:40;;;;;;;1999.90;999.90;;;;;;;6.48;73.51;98532.81;5068058;28;20067;-65
2021/04/25 03:16:06;;;;;;;1999.90;999.90;;;;;;;6.85;71.96;98540.25;5065604;28;20049;-65
2021/04/25 03:18:32;;;;;;;1999.90;999.90;;;;;;;7.09;70.87;98539.38;5059007;28;20048;-65
2021/04/25 03:20:58;;;;;;;1999.90;999.90;;;;;;;7.20;69.58;98540.03;5061351;28;20049;-65
2021/04/25 03:23:25;;;;;;;1999.90;999.90;;;;;;;7.20;69.86;98534.53;5064525;28;20041;-65
2021/04/25 03:25:51;;;;;;;1999.90;999.90;;;;;;;7.33;69.27;98535.72;5068087;28;20052;-65
2021/04/25 03:28:17;;;;;;;1999.90;999.90;;;;;;;7.30;69.18;98523.38;5063935;28;20064;-65
2021/04/25 03:30:43;;;;;;;1999.90;999.90;;;;;;;7.42;68.91;98527.59;5067379;28;20052;-65
2021/04/25 03:33:09;;;;;;;1999.90;999.90;;;;;;;7.51;67.86;98534.03;5060419;28;20041;-65
2021/04/25 03:35:35;;;;;;;1999.90;999.90;;;;;;;7.57;67.52;98521.81;5065059;28;20110;-65
2021/04/25 03:38:02;;;;;;;1999.90;999.90;;;;;;;7.53;67.86;98526.28;5065312;28;20048;-65
2021/04/25 03:40:28;;;;;;;1999.90;999.90;;;;;;;7.52;67.75;98532.94;5062778;28;20075;-65
2021/04/25 03:42:54;;;;;;;1999.90;999.90;;;;;;;7.53;67.45;98531.78;5067926;28;20040;-65
2021/04/25 03:45:20;;;;;;;1999.90;999.90;;;;;;;7.34;67.71;98523.56;5063581;28;20400;-65
2021/04/25 03:47:49;;;;;;;1999.90;999.90;;;;;;;7.47;67.71;98528.31;5066833;28;20052;-65
2021/04/25 03:50:17;;;;;;;1999.90;999.90;;;;;;;7.55;67.21;98532.31;5063306;28;20041;-65
2021/04/25 03:52:44;;;;;;;1999.90;999.90;;;;;;;7.46;67.35;98532.19;5065782;28;20541;-65
2021/04/25 03:55:12;;;;;;;1999.90;999.90;;;;;;;7.48;67.04;98524.44;5068825;28;20044;-65
2021/04/25 03:57:38;;;;;;;1999.90;999.90;;;;;;;7.45;67.59;98522.28;5065263;28;20094;-65
2021/04/25 04:00:11;;;;;;;1999.90;999.90;;;;;;;7.33;67.36;98527.47;5064433;28;20520;-65
2021/04/25 04:02:37;;;;;;;1999.90;999.90;;;;;;;7.48;67.05;98524.44;5050315;28;20036;-65
2021/04/25 04:05:04;;;;;;;1999.90;999.90;;;;;;;7.54;67.06;98526.00;5063336;28;20048;-65
2021/04/25 04:07:30;;;;;;;1999.90;999.90;;;;;;;7.69;67.00;98532.34;5067695;28;20460;-65
2021/04/25 04:09:56;;;;;;;1999.90;999.90;;;;;;;7.64;66.50;98536.03;5054966;28;20049;-65
2021/04/25 04:12:22;;;;;;;1999.90;999.90;;;;;;;7.67;66.34;98531.84;5063729;28;20037;-65
2021/04/25 04:14:48;;;;;;;1999.90;999.90;;;;;;;7.78;66.22;98526.97;5066443;28;20049;-65
2021/04/25 04:17:14;;;;;;;1999.90;999.90;;;;;;;7.71;66.26;98539.19;5061012;28;20044;-66
2021/04/25 04:19:40;;;;;;;1999.90;999.90;;;;;;;7.78;65.90;98536.03;5068028;28;20117;-65
2021/04/25 04:22:06;;;;;;;1999.90;999.90;;;;;;;7.61;66.03;98533.88;5064549;28;20083;-65
2021/04/25 04:24:33;;;;;;;1999.90;999.90;;;;;;;7.65;66.32;98534.91;5062774;28;20094;-65
2021/04/25 04:26:59;;;;;;;1999.90;999.90;;;;;;;7.81;65.41;98531.88;5066318;28;20049;-65
2021/04/25 04:29:27;;;;;;;1999.90;999.90;;;;;;;7.88;65.83;98535.84;5062163;28;20053;-65
2021/04/25 04:31:53;;;;;;;1999.90;999.90;;;;;;;8.00;65.42;98532.63;5063466;28;20401;-65
2021/04/25 04:34:22;;;;;;;1999.90;999.90;;;;;;;8.15;64.88;98530.69;5060784;28;20040;-65
2021/04/25 04:36:48;;;;;;;1999.90;999.90;;;;;;;7.85;65.40;98538.41;5066400;28;20454;-66
2021/04/25 04:39:14;;;;;;;1999.90;999.90;;;;;;;7.72;65.68;98529.00;5067569;28;20041;-64
2021/04/25 04:41:40;;;;;;;1999.90;999.90;;;;;;;7.92;66.47;98531.38;5065700;28;20361;-64
2021/04/25 04:44:06;;;;;;;1999.90;999.90;;;;;;;7.98;66.04;98526.59;5064224;28;20046;-64
2021/04/25 04:46:33;;;;;;;1999.90;999.90;;;;;;;8.12;66.15;98526.59;5065136;28;20056;-64
2021/04/25 04:48:59;;;;;;;1999.90;999.90;;;;;;;8.09;65.76;98530.78;5064866;28;20053;-65
2021/04/25 04:51:26;;;;;;;1999.90;999.90;;;;;;;8.16;65.09;98526.78;5069581;28;20044;-65
2021/04/25 04:53:52;;;;;;;1999.90;999.90;;;;;;;8.11;65.00;98528.56;5063459;28;20036;-65
2021/04/25 04:56:19;;;;;;;1999.90;999.90;;;;;;;8.18;64.30;98525.38;5064267;28;20495;-65
2021/04/25 04:58:45;;;;;;;1999.90;999.90;;;;;;;8.01;65.58;98537.00;5066794;28;20049;-65
2021/04/25 05:01:11;;;;;;;1999.90;999.90;;;;;;;8.15;65.92;98530.69;5069817;28;20086;-65
2021/04/25 05:03:37;;;;;;;1999.90;999.90;;;;;;;8.35;66.39;98518.44;5064008;28;20044;-65
2021/04/25 05:06:03;;;;;;;1999.90;999.90;;;;;;;8.01;67.14;98526.00;5060327;28;20045;-65
2021/04/25 05:08:29;;;;;;;1999.90;999.90;;;;;;;8.42;65.13;98525.16;5064431;28;20057;-65
2021/04/25 05:10:55;;;;;;;1999.90;999.90;;;;;;;8.18;66.49;98527.34;5064408;28;20041;-65
2021/04/25 05:13:21;;;;;;;1999.90;999.90;;;;;;;8.17;65.79;98523.75;5067882;28;20086;-65
2021/04/25 05:15:47;;;;;;;1999.90;999.90;;;;;;;8.30;65.12;98524.88;5068903;28;20102;-65
2021/04/25 05:18:13;;;;;;;1999.90;999.90;;;;;;;8.53;64.78;98520.31;5071049;28;20579;-65
2021/04/25 05:20:39;;;;;;;1999.90;999.90;;;;;;;8.73;64.28;98519.03;5066723;28;20501;-65
2021/04/25 05:23:06;;;;;;;1999.90;999.90;;;;;;;8.87;63.62;98518.19;5070345;28;20110;-65
2021/04/25 05:25:32;;;;;;;1999.90;999.90;;;;;;;9.09;63.29;98520.97;5069304;28;20097;-65
2021/04/25 05:27:58;;;;;;;1999.90;999.90;;;;;;;8.72;64.04;98528.44;5067673;28;20487;-65
2021/04/25 05:30:24;;;;;;;1999.90;999.90;;;;;;;7.81;66.52;98526.38;5067836;28;20094;-65
2021/04/25 05:32:50;;;;;;;1999.90;999.90;;;;;;;7.94;66.02;98522.81;5067629;28;20054;-65
2021/04/25 05:35:17;;;;;;;1999.90;999.90;;;;;;;8.14;66.36;98527.09;5067370;28;20052;-65
2021/04/25 05:37:43;;;;;;;1999.90;999.90;;;;;;;8.21;65.55;98532.22;5064845;28;20094;-65
2021/04/25 05:40:11;;;;;;;1999.90;999.90;;;;;;;8.42;65.60;98525.16;5063675;28;20094;-65
2021/04/25 05:42:38;;;;;;;1999.90;999.90;;;;;;;8.60;65.47;98519.88;5065312;28;20655;-64
2021/04/25 05:45:05;;;;;;;1999.90;999.90;;;;;;;8.96;64.76;98527.34;5066197;28;20102;-65
2021/04/25 05:47:31;;;;;;;1999.90;999.90;;;;;;;8.87;65.75;98518.19;5066348;28;20052;-65
2021/04/25 05:49:57;;;;;;;1999.90;999.90;;;;;;;9.18;63.79;98523.00;5065238;28;20491;-65
2021/04/25 05:52:23;;;;;;;1999.90;999.90;;;;;;;9.19;63.72;98524.66;5066715;28;20045;-65
2021/04/25 05:54:54;;;;;;;1999.90;999.90;;;;;;;9.49;63.38;98525.84;5050926;28;20040;-65
2021/04/25 05:57:20;;;;;;;1999.90;999.90;;;;;;;9.50;61.67;98524.72;5066901;28;20102;-65
2021/04/25 05:59:46;;;;;;;1999.90;999.90;;;;;;;9.54;61.30;98524.88;5066026;28;20117;-65
2021/04/25 06:02:12;;;;;;;1999.90;999.90;;;;;;;9.81;60.44;98524.75;5064961;28;20056;-65
2021/04/25 06:04:41;;;;;;;1999.90;999.90;;;;;;;10.11;59.99;98533.34;5052791;28;20080;-65
2021/04/25 06:07:07;;;;;;;1999.90;999.90;;;;;;;9.52;60.68;98527.97;5069589;28;20044;-65
2021/04/25 06:09:33;;;;;;;1999.90;999.90;;;;;;;10.11;60.67;98525.06;5068473;28;20048;-65
2021/04/25 06:11:59;;;;;;;1999.90;999.90;;;;;;;10.39;58.83;98524.84;5065877;28;20098;-65
2021/04/25 06:14:25;;;;;;;1999.90;999.90;;;;;;;10.15;59.69;98526.06;5063946;28;20052;-65
2021/04/25 06:16:51;;;;;;;1999.90;999.90;;;;;;;9.99;60.84;98519.31;5066483;28;20040;-65
2021/04/25 06:19:18;;;;;;;1999.90;999.90;;;;;;;10.04;60.31;98536.56;5068432;28;20040;-65
2021/04/25 06:21:44;;;;;;;1999.90;999.90;;;;;;;10.25;58.82;98537.94;5083339;28;20499;-66
2021/04/25 06:24:10;;;;;;;1999.90;999.90;;;;;;;10.35;58.64;98537.69;5086042;28;20043;-65
2021/04/25 06:26:36;;;;;;;1999.90;999.90;;;;;;;10.10;57.96;98536.44;5087091;28;20549;-64
2021/04/25 06:29:03;;;;;;;1999.90;999.90;;;;;;;9.23;61.33;98536.66;5084419;28;20051;-64
2021/04/25 06:31:29;;;;;;;1999.90;999.90;;;;;;;9.42;59.72;98531.78;5085256;28;20052;-63
2021/04/25 06:33:55;;;;;;;1999.90;999.90;;;;;;;9.24;61.26;98535.56;5085054;28;20044;-64
2021/04/25 06:36:22;;;;;;;1999.90;999.90;;;;;;;9.56;60.25;98534.50;5084762;28;20085;-64
2021/04/25 06:38:48;;;;;;;1999.90;999.90;;;;;;;9.77;60.40;98540.31;5085778;28;20044;-65
2021/04/25 06:41:14;;;;;;;1999.90;999.90;;;;;;;10.15;60.65;98544.56;5086571;28;20048;-65
2021/04/25 06:43:40;;;;;;;1999.90;999.90;;;;;;;10.24;59.79;98542.66;5087596;28;20040;-65
2021/04/25 06:46:06;;;;;;;1999.90;999.90;;;;;;;10.64;58.63;98545.41;5088743;28;20544;-65
2021/04/25 06:48:33;;;;;;;1999.90;999.90;;;;;;;10.25;60.13;98537.94;5085884;28;20421;-64
2021/04/25 06:51:03;;;;;;;1999.90;999.90;;;;;;;10.52;59.38;98537.72;5083485;28;20063;-64
2021/04/25 06:53:30;;;;;;;1999.90;999.90;;;;;;;10.48;58.24;98539.53;5081001;28;20048;-64
2021/04/25 06:55:56;;;;;;;1999.90;999.90;;;;;;;10.55;57.42;98537.13;5085550;28;20044;-65
2021/04/25 06:58:22;;;;;;;1999.90;999.90;;;;;;;10.38;60.20;98540.63;5086771;28;20421;-65
2021/04/25 07:00:48;;;;;;;1999.90;999.90;;;;;;;10.87;58.11;98542.56;5084573;28;20052;-65
2021/04/25 07:03:14;;;;;;;1999.90;999.90;;;;;;;10.49;57.25;98543.09;5084554;28;20075;-64
2021/04/25 07:05:40;;;;;;;1999.90;999.90;;;;;;;10.08;59.13;98550.56;5082760;28;20332;-64
2021/04/25 07:08:07;;;;;;;1999.90;999.90;;;;;;;10.11;57.88;98552.69;5084426;28;20040;-64
2021/04/25 07:10:33;;;;;;;1999.90;999.90;;;;;;;10.04;58.21;98547.59;5081987;28;20047;-64
2021/04/25 07:13:00;;;;;;;1999.90;999.90;;;;;;;10.46;57.96;98546.50;5086214;28;20403;-63
2021/04/25 07:15:26;;;;;;;1999.90;999.90;;;;;;;10.73;57.76;98554.56;5086943;28;20048;-64
2021/04/25 07:17:54;;;;;;;1999.90;999.90;;;;;;;10.35;59.86;98552.31;5085744;28;20043;-63
2021/04/25 07:20:20;;;;;;;1999.90;999.90;;;;;;;10.04;59.99;98547.59;5084995;28;20109;-64
2021/04/25 07:22:46;;;;;;;1999.90;999.90;;;;;;;10.56;58.23;98558.09;5085502;28;20044;-64
2021/04/25 07:25:12;;;;;;;1999.90;999.90;;;;;;;10.46;57.26;98552.84;5083561;28;20048;-64
2021/04/25 07:27:39;;;;;;;1999.90;999.90;;;;;;;10.12;57.79;98557.06;5087836;28;20487;-64
2021/04/25 07:30:07;;;;;;;1999.90;999.90;;;;;;;9.96;60.11;98558.59;5088224;28;20105;-64
2021/04/25 07:32:33;;;;;;;1999.90;999.90;;;;;;;10.55;58.41;98553.72;5083447;28;20040;-64
2021/04/25 07:35:00;;;;;;;1999.90;999.90;;;;;;;10.87;57.55;98543.38;5088002;28;20092;-64
2021/04/25 07:37:26;;;;;;;1999.90;999.90;;;;;;;10.43;57.94;98550.72;5087484;28;20047;-64
2021/04/25 07:39:52;;;;;;;1999.90;999.90;;;;;;;11.23;55.16;98545.03;5086270;28;20465;-64
2021/04/25 07:42:18;;;;;;;1999.90;999.90;;;;;;;11.07;55.36;98550.22;5087466;28;20453;-65
2021/04/25 07:44:45;;;;;;;1999.90;999.90;;;;;;;10.57;55.38;98551.44;5081787;28;20052;-65
2021/04/25 07:47:12;;;;;;;1999.90;999.90;;;;;;;10.79;54.48;98546.91;5081693;28;20487;-65
2021/04/25 07:49:39;;;;;;;1999.90;999.90;;;;;;;10.91;54.75;98544.34;5085890;28;20659;-64
2021/04/25 07:52:05;;;;;;;1999.90;999.90;;;;;;;11.22;54.65;98554.44;5086029;28;20300;-65
2021/04/25 07:54:32;;;;;;;1999.90;999.90;;;;;;;11.14;53.63;98551.72;5086793;28;20088;-65
2021/04/25 07:56:58;;;;;;;1999.90;999.90;;;;;;;10.75;53.73;98557.03;5078027;28;20040;-65
2021/04/25 07:59:24;;;;;;;1999.90;999.90;;;;;;;11.16;53.89;98555.75;5067813;28;20053;-64
2021/04/25 08:01:50;;;;;;;1999.90;999.90;;;;;;;11.15;54.64;98554.16;5083176;28;20048;-64
2021/04/25 08:04:16;;;;;;;1999.90;999.90;;;;;;;11.18;54.23;98553.50;5081095;28;20394;-65
2021/04/25 08:06:43;;;;;;;1999.90;999.90;;;;;;;10.78;53.41;98550.84;5088741;28;20048;-65
2021/04/25 08:09:10;;;;;;;1999.90;999.90;;;;;;;10.80;54.67;98548.56;5085293;28;20047;-65
2021/04/25 08:11:36;;;;;;;1999.90;999.90;;;;;;;10.43;55.36;98547.16;5087181;28;20560;-65
2021/04/25 08:14:03;;;;;;;1999.90;999.90;;;;;;;10.99;54.62;98553.81;5080430;28;20131;-65
2021/04/25 08:16:30;;;;;;;1999.90;999.90;;;;;;;12.06;52.45;98553.41;5085347;28;20059;-65
2021/04/25 08:18:56;;;;;;;1999.90;999.90;;;;;;;11.91;52.64;98550.00;5084189;28;20638;-64
2021/04/25 08:21:26;;;;;;;1999.90;999.90;;;;;;;11.84;52.15;98546.91;5086143;28;20462;-65
2021/04/25 08:23:52;;;;;;;1999.90;999.90;;;;;;;11.37;52.04;98538.50;5076813;28;20036;-65
2021/04/25 08:26:18;;;;;;;1999.90;999.90;;;;;;;11.57;53.66;98535.06;5085635;28;20102;-65
2021/04/25 08:28:44;;;;;;;1999.90;999.90;;;;;;;11.81;50.80;98536.50;5084401;28;20069;-64
2021/04/25 08:31:11;;;;;;;1999.90;999.90;;;;;;;11.11;50.56;98536.56;5085977;28;20070;-65
2021/04/25 08:33:37;;;;;;;1999.90;999.90;;;;;;;10.69;50.41;98547.25;5087430;28;20106;-64
2021/04/25 08:36:05;;;;;;;1999.90;999.90;;;;;;;10.17;47.28;98547.84;5082657;28;20486;-64
2021/04/25 08:38:32;;;;;;;1999.90;999.90;;;;;;;10.21;46.34;98544.13;5084308;28;20055;-64
2021/04/25 08:41:03;;;;;;;1999.90;999.90;;;;;;;9.79;46.60;98549.09;5082188;28;20052;-65
2021/04/25 08:43:31;;;;;;;1999.90;999.90;;;;;;;9.91;47.19;98545.75;5084053;28;20048;-65
2021/04/25 08:45:59;;;;;;;1999.90;999.90;;;;;;;9.79;46.73;98538.03;5083865;28;20092;-65
2021/04/25 08:48:29;;;;;;;1999.90;999.90;;;;;;;10.23;43.89;98541.84;5082416;28;20067;-64
2021/04/25 08:50:56;;;;;;;1999.90;999.90;;;;;;;10.89;44.18;98535.53;5083209;28;20076;-64
2021/04/25 08:53:23;;;;;;;1999.90;999.90;;;;;;;11.30;45.57;98538.19;5072180;28;20044;-65
2021/04/25 08:55:49;;;;;;;1999.90;999.90;;;;;;;11.25;43.27;98540.00;5083590;28;20044;-65
2021/04/25 08:58:17;;;;;;;1999.90;999.90;;;;;;;11.36;41.76;98545.19;5083584;28;20064;-64
2021/04/25 09:00:44;;;;;;;1999.90;999.90;;;;;;;10.79;43.85;98544.16;5081733;28;20048;-65
2021/04/25 09:03:10;;;;;;;1999.90;999.90;;;;;;;11.07;41.01;98541.09;5085847;28;20725;-67
2021/04/25 09:05:36;;;;;;;1999.90;999.90;;;;;;;10.67;43.15;98541.19;5087661;28;20490;-65
2021/04/25 09:08:04;;;;;;;1999.90;999.90;;;;;;;10.25;39.59;98551.78;5076407;28;20095;-66
2021/04/25 09:10:39;;;;;;;1999.90;999.90;;;;;;;10.64;41.49;98545.41;5086059;28;20135;-64
2021/04/25 09:13:20;;;;;;;1999.90;999.90;;;;;;;9.85;38.48;98553.38;5078328;28;20056;-65
2021/04/25 09:15:48;;;;;;;1999.90;999.90;;;;;;;10.57;39.69;98545.91;5079106;28;20052;-64
2021/04/25 09:18:14;;;;;;;1999.90;999.90;;;;;;;10.59;38.94;98540.06;5079725;28;20575;-64
2021/04/25 09:20:47;;;;;;;1999.90;999.90;;;;;;;10.41;40.27;98541.94;5076389;28;20060;-64
2021/04/25 09:23:32;;;;;;;1999.90;999.90;;;;;;;10.74;39.86;98541.56;5060716;28;20159;-64
2021/04/25 09:26:03;;;;;;;1999.90;999.90;;;;;;;10.23;41.99;98547.38;5080252;28;20153;-64
2021/04/25 09:28:30;;;;;;;;;;;;;;;11.98;39.90;98541.22;5082474;28;20633;-64
2021/04/25 09:31:08;;;;;;;1999.90;999.90;;;;;;;12.90;39.29;98531.47;5080285;28;19923;-64
2021/04/25 09:33:58;;;;;;;1999.90;999.90;;;;;;;10.79;48.63;98552.44;5083029;28;20089;-64
2021/04/25 09:36:28;;;;;;;1999.90;999.90;;;;;;;9.96;52.72;98539.25;5081845;28;20055;-64
2021/04/25 09:39:15;;;;;;;1999.90;999.90;;;;;;;9.45;52.83;98556.03;5085359;28;20746;-64
2021/04/25 09:41:41;;;;;;;1999.90;999.90;;;;;;;9.37;53.14;98559.53;5080096;28;20861;-64
2021/04/25 09:44:07;;;;;;;1999.90;999.90;;;;;;;9.13;51.04;98555.09;5083836;28;20047;-64
2021/04/25 09:46:57;;;;;;;1999.90;999.90;;;;;;;9.53;51.16;98562.72;5072825;28;20055;-64
2021/04/25 09:49:48;;;;;;;1999.90;999.90;;;;;;;9.28;49.92;98556.69;5074498;28;20109;-65
2021/04/25 09:52:38;;;;;;;1999.90;999.90;;;;;;;10.12;49.02;98553.50;5080945;28;20055;-65
2021/04/25 09:55:29;;;;;;;1999.90;999.90;;;;;;;9.77;49.51;98553.31;5082302;28;20313;-65
2021/04/25 09:58:08;;;;;;;1999.90;999.90;;;;;;;10.40;45.53;98556.91;5063648;28;20110;-66
2021/04/25 10:00:40;;;;;;;1999.90;999.90;;;;;;;10.50;43.70;98556.59;5082137;28;20094;-66
2021/04/25 10:03:09;;;;;;;1999.90;999.90;;;;;;;10.57;43.43;98559.72;5083303;28;20040;-66
2021/04/25 10:05:38;;;;;;;1999.90;999.90;;;;;;;10.87;42.42;98554.44;5079468;28;20056;-63
2021/04/25 10:08:05;;;;;;;1999.90;999.90;;;;;;;10.53;42.69;98552.41;5081373;28;20078;-65
2021/04/25 10:10:32;;;;;;;1999.90;999.90;;;;;;;10.72;44.39;98552.13;5079192;28;20052;-64
2021/04/25 10:12:59;;;;;;;1999.90;999.90;;;;;;;10.95;44.73;98561.09;5081414;28;20629;-65
2021/04/25 10:15:26;;;;;;;1999.90;999.90;;;;;;;11.39;43.45;98552.84;5084775;28;20558;-65
2021/04/25 10:17:56;;;;;;;1999.90;999.90;;;;;;;11.82;42.66;98560.31;5072560;28;20565;-65
2021/04/25 10:20:23;;;;;;;1999.90;999.90;;;;;;;10.81;42.67;98555.72;5071759;28;20068;-65
2021/04/25 10:22:51;;;;;;;1999.90;999.90;;;;;;;10.49;41.89;98566.03;5076437;28;20075;-65
2021/04/25 10:25:34;;;;;;;1999.90;999.90;;;;;;;10.54;43.77;98562.34;5082438;28;20052;-65
2021/04/25 10:28:25;;;;;;;1999.90;999.90;;;;;;;11.87;43.28;98562.09;5083511;28;20048;-65
2021/04/25 10:31:01;;;;;;;1999.90;999.90;;;;;;;11.97;39.90;98561.78;5084540;28;20048;-65
2021/04/25 10:33:52;;;;;;;1999.90;999.90;;;;;;;11.06;40.58;98553.31;5084051;28;20113;-65
2021/04/25 10:36:23;;;;;;;1999.90;999.90;;;;;;;10.96;42.04;98562.75;5079513;28;20503;-64
2021/04/25 10:38:49;;;;;;;1999.90;999.90;;;;;;;11.04;41.74;98558.34;5081504;28;20055;-65
2021/04/25 10:41:26;;;;;;;1999.90;999.90;;;;;;;11.24;42.43;98552.19;5082592;28;20074;-65
2021/04/25 10:44:02;;;;;;;1999.90;999.90;;;;;;;11.63;40.54;98571.72;5083344;28;20060;-64
2021/04/25 10:47:07;;;;;;;1999.90;999.90;;;;;;;11.23;40.74;98569.13;5076918;28;20087;-65
2021/04/25 10:49:37;;;;;;;1999.90;999.90;;;;;;;11.36;45.09;98564.56;5067415;28;20049;-64
2021/04/25 10:52:40;;;;;;;1999.90;999.90;;;;;;;11.03;42.06;98570.56;5082921;28;20079;-65
2021/04/25 10:55:12;;;;;;;1999.90;999.90;;;;;;;10.97;42.76;98571.84;5007959;28;20119;-65
2021/04/25 10:57:53;;;;;;;1999.90;999.90;;;;;;;11.17;43.72;98568.47;5070545;28;20502;-64
2021/04/25 11:00:31;;;;;;;1999.90;999.90;;;;;;;11.84;42.46;98587.69;5078581;28;20529;-65
2021/04/25 11:02:58;;;;;;;1999.90;999.90;;;;;;;11.37;41.00;98588.34;5086285;28;20055;-65